Mount Morris, Pennsylvania
Current Conditions -  °F | °C
As of 4:53 AM on Saturday 25 Oct 2014 (Local Time) from KMGW Reporting Station
Overcast Overcast  
Wind Chill: 50°   Ceiling: 4500
Heat Index: 50°   Visibility: 10mi
Dew Point: 39°   Wind: 3mph
Humidity: 66%   Direction: 210°SSW
Pressure: 30.01"   Gusts: NA
Location:  39.73°N, 80.07°W
Report Text: KMGW 250853Z AUTO 21003KT 10SM OVC045 10/04 A3001 RMK AO2 SLP161 T01000039 56007 TSNO
Loading
Personal Weather Stations






























Interactive Weather Map
Tropical Storm Tracking
New forecast layout! Learn more

10-Day Weather Forecast

Advertisements
Track Severe Weather on mobile